Terminal Aerodrome Forecast
Issued by NWS

Current Version | Previous Version | Text Only | Print | Product List | Glossary Off
Versions: 1 2 3 4 5 6 7 8 9 10 11 12 13 14 15 16 17 18 19 20 21 22 23 24 25 26

000
FTUS41 KRLX 260545
TAFCKB
TAF
KCKB 260545Z 2606/2706 00000KT P6SM FEW130
     FM261000 00000KT 5SM BR FEW140
     FM261300 VRB03KT P6SM FEW250
     FM262000 21009KT 2SM SHRA VCTS BKN040CB
     FM262300 26009KT 5SM SHRA VCTS OVC035CB
     FM270100 28008KT 5SM BR OVC025
     FM270300 27005KT 1SM BR BKN001
     FM270400 26005KT 1 1/2SM BR BKN015=

USA.gov is the U.S. government's official web portal to all federal, state and local government web resources and services.